Terminal Aerodrome Forecast
Issued by NWS

Home | Current Version | Previous Version | Text Only | Print | Product List | Glossary Off
Versions: 1 2 3 4 5 6 7 8 9 10 11 12 13 14 15 16 17 18 19 20 21

522
FTUS41 KCLE 152320
TAFFDY
TAF
KFDY 152320Z 1600/1624 VRB03KT P6SM SCT100 OVC200
     FM160900 12004KT P6SM BKN050 OVC100
     FM161300 12004KT 4SM BR SCT015 OVC035
     FM161800 12006KT 2SM -RA BR OVC008=

USA.gov is the U.S. government's official web portal to all federal, state and local government web resources and services.